sensor_id;sensor_type;location;lat;lon;timestamp;temperature;humidity
4354;DHT22;11018;51.258;6.806;2023-06-22T00:01:18;22.70;24.90
4354;DHT22;11018;51.258;6.806;2023-06-22T00:03:44;22.70;25.20
4354;DHT22;11018;51.258;6.806;2023-06-22T00:06:09;22.70;25.10
4354;DHT22;11018;51.258;6.806;2023-06-22T00:08:35;22.70;25.10
4354;DHT22;11018;51.258;6.806;2023-06-22T00:11:01;22.70;25.00
4354;DHT22;11018;51.258;6.806;2023-06-22T00:13:26;22.70;24.80
4354;DHT22;11018;51.258;6.806;2023-06-22T00:15:52;22.70;25.00
4354;DHT22;11018;51.258;6.806;2023-06-22T00:18:17;22.70;24.60
4354;DHT22;11018;51.258;6.806;2023-06-22T00:20:43;22.70;24.80
4354;DHT22;11018;51.258;6.806;2023-06-22T00:23:11;22.80;24.00
4354;DHT22;11018;51.258;6.806;2023-06-22T00:25:37;22.80;24.20
4354;DHT22;11018;51.258;6.806;2023-06-22T00:28:04;22.70;24.30
4354;DHT22;11018;51.258;6.806;2023-06-22T00:30:31;22.70;24.70
4354;DHT22;11018;51.258;6.806;2023-06-22T00:32:56;22.60;25.20
4354;DHT22;11018;51.258;6.806;2023-06-22T00:35:22;22.60;25.20
4354;DHT22;11018;51.258;6.806;2023-06-22T00:37:48;22.60;25.40
4354;DHT22;11018;51.258;6.806;2023-06-22T00:40:13;22.60;25.70
4354;DHT22;11018;51.258;6.806;2023-06-22T00:42:40;22.60;26.00
4354;DHT22;11018;51.258;6.806;2023-06-22T00:45:07;22.60;26.30
4354;DHT22;11018;51.258;6.806;2023-06-22T00:47:34;22.50;26.90
4354;DHT22;11018;51.258;6.806;2023-06-22T00:49:59;22.50;27.20
4354;DHT22;11018;51.258;6.806;2023-06-22T00:52:26;22.50;27.10
4354;DHT22;11018;51.258;6.806;2023-06-22T00:54:56;22.50;27.30
4354;DHT22;11018;51.258;6.806;2023-06-22T00:57:24;22.40;27.70
4354;DHT22;11018;51.258;6.806;2023-06-22T00:59:51;22.40;28.30
4354;DHT22;11018;51.258;6.806;2023-06-22T01:02:16;22.40;28.70
4354;DHT22;11018;51.258;6.806;2023-06-22T01:04:42;22.30;29.00
4354;DHT22;11018;51.258;6.806;2023-06-22T01:07:25;22.30;29.30
4354;DHT22;11018;51.258;6.806;2023-06-22T01:12:26;22.30;29.70
4354;DHT22;11018;51.258;6.806;2023-06-22T01:15:02;22.30;30.00
4354;DHT22;11018;51.258;6.806;2023-06-22T01:17:31;22.30;30.80
4354;DHT22;11018;51.258;6.806;2023-06-22T01:19:58;22.30;30.90
4354;DHT22;11018;51.258;6.806;2023-06-22T01:22:30;22.30;31.20
4354;DHT22;11018;51.258;6.806;2023-06-22T01:25:07;22.20;31.50
4354;DHT22;11018;51.258;6.806;2023-06-22T01:28:03;22.20;32.00
4354;DHT22;11018;51.258;6.806;2023-06-22T01:30:30;22.20;32.60
4354;DHT22;11018;51.258;6.806;2023-06-22T01:33:01;22.20;32.90
4354;DHT22;11018;51.258;6.806;2023-06-22T01:35:29;22.20;33.50
4354;DHT22;11018;51.258;6.806;2023-06-22T01:37:55;22.10;33.90
4354;DHT22;11018;51.258;6.806;2023-06-22T01:40:21;22.10;34.40
4354;DHT22;11018;51.258;6.806;2023-06-22T01:42:47;22.10;35.40
4354;DHT22;11018;51.258;6.806;2023-06-22T01:45:13;22.10;35.10
4354;DHT22;11018;51.258;6.806;2023-06-22T01:47:40;22.10;35.50
4354;DHT22;11018;51.258;6.806;2023-06-22T01:50:06;22.10;35.80
4354;DHT22;11018;51.258;6.806;2023-06-22T01:52:32;22.00;36.30
4354;DHT22;11018;51.258;6.806;2023-06-22T01:55:00;22.00;37.00
4354;DHT22;11018;51.258;6.806;2023-06-22T01:57:26;21.90;37.20
4354;DHT22;11018;51.258;6.806;2023-06-22T02:00:00;22.00;37.30
4354;DHT22;11018;51.258;6.806;2023-06-22T02:02:36;22.00;37.20
4354;DHT22;11018;51.258;6.806;2023-06-22T02:05:06;22.10;37.40
4354;DHT22;11018;51.258;6.806;2023-06-22T02:07:41;22.10;37.30
4354;DHT22;11018;51.258;6.806;2023-06-22T02:10:09;22.10;37.40
4354;DHT22;11018;51.258;6.806;2023-06-22T02:12:37;22.10;37.70
4354;DHT22;11018;51.258;6.806;2023-06-22T02:15:04;22.10;38.50
4354;DHT22;11018;51.258;6.806;2023-06-22T02:17:30;22.10;38.40
4354;DHT22;11018;51.258;6.806;2023-06-22T02:19:58;22.00;38.70
4354;DHT22;11018;51.258;6.806;2023-06-22T02:22:24;22.00;38.90
4354;DHT22;11018;51.258;6.806;2023-06-22T02:24:49;22.00;39.00
4354;DHT22;11018;51.258;6.806;2023-06-22T02:27:15;22.00;39.30
4354;DHT22;11018;51.258;6.806;2023-06-22T02:29:40;22.00;39.60
4354;DHT22;11018;51.258;6.806;2023-06-22T02:32:06;22.00;39.80
4354;DHT22;11018;51.258;6.806;2023-06-22T02:34:32;22.00;40.30
4354;DHT22;11018;51.258;6.806;2023-06-22T02:36:59;21.90;41.00
4354;DHT22;11018;51.258;6.806;2023-06-22T02:39:26;21.90;41.20
4354;DHT22;11018;51.258;6.806;2023-06-22T02:41:53;21.90;41.50
4354;DHT22;11018;51.258;6.806;2023-06-22T02:44:19;21.90;42.00
4354;DHT22;11018;51.258;6.806;2023-06-22T02:46:45;21.80;42.40
4354;DHT22;11018;51.258;6.806;2023-06-22T02:49:11;21.80;43.00
4354;DHT22;11018;51.258;6.806;2023-06-22T02:51:39;21.70;43.70
4354;DHT22;11018;51.258;6.806;2023-06-22T02:54:06;21.60;44.10
4354;DHT22;11018;51.258;6.806;2023-06-22T02:56:31;21.60;44.60
4354;DHT22;11018;51.258;6.806;2023-06-22T02:58:57;21.60;45.00
4354;DHT22;11018;51.258;6.806;2023-06-22T03:01:30;21.50;45.40
4354;DHT22;11018;51.258;6.806;2023-06-22T03:04:05;21.50;45.60
4354;DHT22;11018;51.258;6.806;2023-06-22T03:06:31;21.50;46.30
4354;DHT22;11018;51.258;6.806;2023-06-22T03:09:00;21.50;46.20
4354;DHT22;11018;51.258;6.806;2023-06-22T03:11:26;21.50;46.60
4354;DHT22;11018;51.258;6.806;2023-06-22T03:13:51;21.50;46.70
4354;DHT22;11018;51.258;6.806;2023-06-22T03:16:18;21.50;46.80
4354;DHT22;11018;51.258;6.806;2023-06-22T03:18:44;21.60;46.60
4354;DHT22;11018;51.258;6.806;2023-06-22T03:21:10;21.50;47.10
4354;DHT22;11018;51.258;6.806;2023-06-22T03:23:35;21.50;47.70
4354;DHT22;11018;51.258;6.806;2023-06-22T03:26:02;21.50;47.80
4354;DHT22;11018;51.258;6.806;2023-06-22T03:28:27;21.50;47.50
4354;DHT22;11018;51.258;6.806;2023-06-22T03:30:53;21.50;47.80
4354;DHT22;11018;51.258;6.806;2023-06-22T03:33:18;21.50;48.20
4354;DHT22;11018;51.258;6.806;2023-06-22T03:35:44;21.50;48.00
4354;DHT22;11018;51.258;6.806;2023-06-22T03:38:09;21.40;48.40
4354;DHT22;11018;51.258;6.806;2023-06-22T03:40:35;21.40;48.80
4354;DHT22;11018;51.258;6.806;2023-06-22T03:43:00;21.40;49.30
4354;DHT22;11018;51.258;6.806;2023-06-22T03:45:26;21.40;49.70
4354;DHT22;11018;51.258;6.806;2023-06-22T03:47:51;21.30;50.20
4354;DHT22;11018;51.258;6.806;2023-06-22T03:50:17;21.40;50.30
4354;DHT22;11018;51.258;6.806;2023-06-22T03:52:45;21.40;50.20
4354;DHT22;11018;51.258;6.806;2023-06-22T03:55:11;21.40;50.20
4354;DHT22;11018;51.258;6.806;2023-06-22T03:57:36;21.50;49.40
4354;DHT22;11018;51.258;6.806;2023-06-22T04:00:02;21.60;48.60
4354;DHT22;11018;51.258;6.806;2023-06-22T04:02:31;21.60;48.60
4354;DHT22;11018;51.258;6.806;2023-06-22T04:04:56;21.60;48.80
4354;DHT22;11018;51.258;6.806;2023-06-22T04:07:22;21.60;48.00
4354;DHT22;11018;51.258;6.806;2023-06-22T04:09:47;21.60;48.00
4354;DHT22;11018;51.258;6.806;2023-06-22T04:12:13;21.60;47.70
4354;DHT22;11018;51.258;6.806;2023-06-22T04:14:39;21.60;47.70
4354;DHT22;11018;51.258;6.806;2023-06-22T04:17:04;21.70;47.20
4354;DHT22;11018;51.258;6.806;2023-06-22T04:19:30;21.70;46.30
4354;DHT22;11018;51.258;6.806;2023-06-22T04:21:56;21.80;46.30
4354;DHT22;11018;51.258;6.806;2023-06-22T04:24:21;21.70;46.20
4354;DHT22;11018;51.258;6.806;2023-06-22T04:26:47;21.70;45.90
4354;DHT22;11018;51.258;6.806;2023-06-22T04:29:13;21.80;44.90
4354;DHT22;11018;51.258;6.806;2023-06-22T04:31:39;21.90;43.90
4354;DHT22;11018;51.258;6.806;2023-06-22T04:34:05;21.90;43.40
4354;DHT22;11018;51.258;6.806;2023-06-22T04:36:39;21.90;43.30
4354;DHT22;11018;51.258;6.806;2023-06-22T04:39:06;21.90;43.40
4354;DHT22;11018;51.258;6.806;2023-06-22T04:41:32;21.90;43.60
4354;DHT22;11018;51.258;6.806;2023-06-22T04:44:14;22.00;42.50
4354;DHT22;11018;51.258;6.806;2023-06-22T04:46:49;22.00;43.20
4354;DHT22;11018;51.258;6.806;2023-06-22T04:49:19;22.00;42.30
4354;DHT22;11018;51.258;6.806;2023-06-22T04:51:45;22.10;42.10
4354;DHT22;11018;51.258;6.806;2023-06-22T04:54:11;22.10;41.80
4354;DHT22;11018;51.258;6.806;2023-06-22T04:56:36;22.10;42.10
4354;DHT22;11018;51.258;6.806;2023-06-22T04:59:02;22.00;42.70
4354;DHT22;11018;51.258;6.806;2023-06-22T05:01:31;21.80;43.60
4354;DHT22;11018;51.258;6.806;2023-06-22T05:03:57;21.80;44.60
4354;DHT22;11018;51.258;6.806;2023-06-22T05:06:23;21.80;43.80
4354;DHT22;11018;51.258;6.806;2023-06-22T05:08:56;21.90;43.10
4354;DHT22;11018;51.258;6.806;2023-06-22T05:11:25;21.90;43.20
4354;DHT22;11018;51.258;6.806;2023-06-22T05:13:51;22.00;43.10
4354;DHT22;11018;51.258;6.806;2023-06-22T05:16:17;22.00;42.70
4354;DHT22;11018;51.258;6.806;2023-06-22T05:18:43;22.30;39.60
4354;DHT22;11018;51.258;6.806;2023-06-22T05:21:09;22.50;38.60
4354;DHT22;11018;51.258;6.806;2023-06-22T05:23:34;22.60;38.20
4354;DHT22;11018;51.258;6.806;2023-06-22T05:26:00;22.60;38.00
4354;DHT22;11018;51.258;6.806;2023-06-22T05:28:25;22.50;39.20
4354;DHT22;11018;51.258;6.806;2023-06-22T05:30:51;22.50;39.30
4354;DHT22;11018;51.258;6.806;2023-06-22T05:33:17;22.50;39.30
4354;DHT22;11018;51.258;6.806;2023-06-22T05:35:42;22.40;40.50
4354;DHT22;11018;51.258;6.806;2023-06-22T05:38:08;22.50;40.30
4354;DHT22;11018;51.258;6.806;2023-06-22T05:40:34;22.50;40.40
4354;DHT22;11018;51.258;6.806;2023-06-22T05:42:59;22.50;39.60
4354;DHT22;11018;51.258;6.806;2023-06-22T05:45:27;22.60;39.00
4354;DHT22;11018;51.258;6.806;2023-06-22T05:47:52;22.60;39.20
4354;DHT22;11018;51.258;6.806;2023-06-22T05:50:18;22.60;38.40
4354;DHT22;11018;51.258;6.806;2023-06-22T05:52:43;22.70;38.80
4354;DHT22;11018;51.258;6.806;2023-06-22T05:55:09;22.70;37.80
4354;DHT22;11018;51.258;6.806;2023-06-22T05:57:37;22.70;39.40
4354;DHT22;11018;51.258;6.806;2023-06-22T06:00:03;22.50;41.60
4354;DHT22;11018;51.258;6.806;2023-06-22T06:02:33;22.40;43.00
4354;DHT22;11018;51.258;6.806;2023-06-22T06:04:59;22.40;43.20
4354;DHT22;11018;51.258;6.806;2023-06-22T06:07:24;22.30;43.70
4354;DHT22;11018;51.258;6.806;2023-06-22T06:09:51;22.40;43.50
4354;DHT22;11018;51.258;6.806;2023-06-22T06:12:17;22.50;43.70
4354;DHT22;11018;51.258;6.806;2023-06-22T06:14:42;22.60;43.10
4354;DHT22;11018;51.258;6.806;2023-06-22T06:17:08;22.60;42.80
4354;DHT22;11018;51.258;6.806;2023-06-22T06:19:33;22.70;43.00
4354;DHT22;11018;51.258;6.806;2023-06-22T06:21:59;22.60;42.40
4354;DHT22;11018;51.258;6.806;2023-06-22T06:24:26;22.60;43.10
4354;DHT22;11018;51.258;6.806;2023-06-22T06:26:51;22.70;41.40
4354;DHT22;11018;51.258;6.806;2023-06-22T06:29:17;22.80;40.80
4354;DHT22;11018;51.258;6.806;2023-06-22T06:31:42;23.00;39.50
4354;DHT22;11018;51.258;6.806;2023-06-22T06:34:08;23.10;38.60
4354;DHT22;11018;51.258;6.806;2023-06-22T06:36:33;23.20;37.50
4354;DHT22;11018;51.258;6.806;2023-06-22T06:38:59;23.20;36.80
4354;DHT22;11018;51.258;6.806;2023-06-22T06:41:24;23.30;35.80
4354;DHT22;11018;51.258;6.806;2023-06-22T06:43:50;23.30;37.20
4354;DHT22;11018;51.258;6.806;2023-06-22T06:46:15;23.30;37.20
4354;DHT22;11018;51.258;6.806;2023-06-22T06:48:41;23.30;36.60
4354;DHT22;11018;51.258;6.806;2023-06-22T06:51:07;23.40;36.40
4354;DHT22;11018;51.258;6.806;2023-06-22T06:53:36;23.30;37.20
4354;DHT22;11018;51.258;6.806;2023-06-22T06:56:01;23.30;37.60
4354;DHT22;11018;51.258;6.806;2023-06-22T06:58:27;23.20;38.80
4354;DHT22;11018;51.258;6.806;2023-06-22T07:00:53;23.10;41.40
4354;DHT22;11018;51.258;6.806;2023-06-22T07:03:19;23.20;44.20
4354;DHT22;11018;51.258;6.806;2023-06-22T07:05:45;23.30;46.10
4354;DHT22;11018;51.258;6.806;2023-06-22T07:08:10;23.30;47.90
4354;DHT22;11018;51.258;6.806;2023-06-22T07:10:36;23.20;48.80
4354;DHT22;11018;51.258;6.806;2023-06-22T07:13:02;23.20;48.30
4354;DHT22;11018;51.258;6.806;2023-06-22T07:15:27;23.20;49.30
4354;DHT22;11018;51.258;6.806;2023-06-22T07:17:53;23.20;49.40
4354;DHT22;11018;51.258;6.806;2023-06-22T07:20:18;23.10;51.30
4354;DHT22;11018;51.258;6.806;2023-06-22T07:22:45;23.10;50.70
4354;DHT22;11018;51.258;6.806;2023-06-22T07:25:10;23.20;51.50
4354;DHT22;11018;51.258;6.806;2023-06-22T07:27:43;23.20;53.00
4354;DHT22;11018;51.258;6.806;2023-06-22T07:30:09;23.00;55.90
4354;DHT22;11018;51.258;6.806;2023-06-22T07:32:35;22.80;54.70
4354;DHT22;11018;51.258;6.806;2023-06-22T07:35:01;22.60;62.30
4354;DHT22;11018;51.258;6.806;2023-06-22T07:37:28;22.50;66.40
4354;DHT22;11018;51.258;6.806;2023-06-22T07:39:55;22.60;65.60
4354;DHT22;11018;51.258;6.806;2023-06-22T07:42:24;22.60;62.50
4354;DHT22;11018;51.258;6.806;2023-06-22T07:44:50;22.50;67.30
4354;DHT22;11018;51.258;6.806;2023-06-22T07:47:18;22.50;67.20
4354;DHT22;11018;51.258;6.806;2023-06-22T07:49:45;22.50;69.10
4354;DHT22;11018;51.258;6.806;2023-06-22T07:52:11;22.70;68.50
4354;DHT22;11018;51.258;6.806;2023-06-22T07:54:36;22.80;68.60
4354;DHT22;11018;51.258;6.806;2023-06-22T07:57:02;22.90;67.20
4354;DHT22;11018;51.258;6.806;2023-06-22T07:59:28;23.10;64.20
4354;DHT22;11018;51.258;6.806;2023-06-22T08:01:55;23.20;67.60
4354;DHT22;11018;51.258;6.806;2023-06-22T08:04:21;23.40;65.10
4354;DHT22;11018;51.258;6.806;2023-06-22T08:06:46;23.80;60.60
4354;DHT22;11018;51.258;6.806;2023-06-22T08:09:12;24.20;56.20
4354;DHT22;11018;51.258;6.806;2023-06-22T08:11:37;24.50;56.50
4354;DHT22;11018;51.258;6.806;2023-06-22T08:14:03;24.90;52.40
4354;DHT22;11018;51.258;6.806;2023-06-22T08:16:29;25.10;49.30
4354;DHT22;11018;51.258;6.806;2023-06-22T08:18:54;24.60;52.30
4354;DHT22;11018;51.258;6.806;2023-06-22T08:21:20;24.40;56.30
4354;DHT22;11018;51.258;6.806;2023-06-22T08:23:46;24.30;56.90
4354;DHT22;11018;51.258;6.806;2023-06-22T08:26:11;24.60;54.00
4354;DHT22;11018;51.258;6.806;2023-06-22T08:28:37;24.70;54.50
4354;DHT22;11018;51.258;6.806;2023-06-22T08:31:03;25.00;54.20
4354;DHT22;11018;51.258;6.806;2023-06-22T08:33:29;25.20;49.00
4354;DHT22;11018;51.258;6.806;2023-06-22T08:35:56;25.50;49.20
4354;DHT22;11018;51.258;6.806;2023-06-22T08:38:21;25.90;50.40
4354;DHT22;11018;51.258;6.806;2023-06-22T08:40:47;26.30;43.60
4354;DHT22;11018;51.258;6.806;2023-06-22T08:43:12;26.80;40.10
4354;DHT22;11018;51.258;6.806;2023-06-22T08:45:38;27.00;41.30
4354;DHT22;11018;51.258;6.806;2023-06-22T08:48:04;26.90;40.90
4354;DHT22;11018;51.258;6.806;2023-06-22T08:50:29;26.80;38.00
4354;DHT22;11018;51.258;6.806;2023-06-22T08:52:55;26.80;37.30
4354;DHT22;11018;51.258;6.806;2023-06-22T08:55:20;26.90;36.40
4354;DHT22;11018;51.258;6.806;2023-06-22T08:57:46;27.20;36.20
4354;DHT22;11018;51.258;6.806;2023-06-22T09:00:12;27.50;33.80
4354;DHT22;11018;51.258;6.806;2023-06-22T09:02:42;27.70;34.50
4354;DHT22;11018;51.258;6.806;2023-06-22T09:05:09;27.80;32.20
4354;DHT22;11018;51.258;6.806;2023-06-22T09:07:35;27.70;32.10
4354;DHT22;11018;51.258;6.806;2023-06-22T09:10:01;27.70;32.50
4354;DHT22;11018;51.258;6.806;2023-06-22T09:12:26;27.70;31.90
4354;DHT22;11018;51.258;6.806;2023-06-22T09:14:53;27.60;30.50
4354;DHT22;11018;51.258;6.806;2023-06-22T09:17:18;27.50;29.70
4354;DHT22;11018;51.258;6.806;2023-06-22T09:19:44;27.30;30.70
4354;DHT22;11018;51.258;6.806;2023-06-22T09:22:09;27.10;30.90
4354;DHT22;11018;51.258;6.806;2023-06-22T09:24:35;27.20;31.30
4354;DHT22;11018;51.258;6.806;2023-06-22T09:27:01;27.50;29.80
4354;DHT22;11018;51.258;6.806;2023-06-22T09:29:26;27.70;27.90
4354;DHT22;11018;51.258;6.806;2023-06-22T09:31:52;28.00;26.40
4354;DHT22;11018;51.258;6.806;2023-06-22T09:34:21;28.10;26.40
4354;DHT22;11018;51.258;6.806;2023-06-22T09:36:47;28.20;25.80
4354;DHT22;11018;51.258;6.806;2023-06-22T09:39:12;28.40;25.00
4354;DHT22;11018;51.258;6.806;2023-06-22T09:41:38;28.50;25.60
4354;DHT22;11018;51.258;6.806;2023-06-22T09:44:03;28.60;23.60
4354;DHT22;11018;51.258;6.806;2023-06-22T09:46:29;28.90;23.60
4354;DHT22;11018;51.258;6.806;2023-06-22T09:48:55;29.10;22.30
4354;DHT22;11018;51.258;6.806;2023-06-22T09:51:20;29.10;20.90
4354;DHT22;11018;51.258;6.806;2023-06-22T09:53:47;28.70;22.90
4354;DHT22;11018;51.258;6.806;2023-06-22T09:56:13;28.80;22.00
4354;DHT22;11018;51.258;6.806;2023-06-22T09:58:44;28.90;21.90
4354;DHT22;11018;51.258;6.806;2023-06-22T10:01:10;29.20;22.10
4354;DHT22;11018;51.258;6.806;2023-06-22T10:03:36;29.80;21.00
4354;DHT22;11018;51.258;6.806;2023-06-22T10:06:02;30.20;19.80
4354;DHT22;11018;51.258;6.806;2023-06-22T10:08:28;30.00;19.80
4354;DHT22;11018;51.258;6.806;2023-06-22T10:10:53;29.30;21.10
4354;DHT22;11018;51.258;6.806;2023-06-22T10:13:19;29.30;22.10
4354;DHT22;11018;51.258;6.806;2023-06-22T10:15:45;29.40;22.80
4354;DHT22;11018;51.258;6.806;2023-06-22T10:18:15;29.40;23.50
4354;DHT22;11018;51.258;6.806;2023-06-22T10:20:41;29.60;22.90
4354;DHT22;11018;51.258;6.806;2023-06-22T10:23:07;29.70;21.10
4354;DHT22;11018;51.258;6.806;2023-06-22T10:25:32;29.30;22.30
4354;DHT22;11018;51.258;6.806;2023-06-22T10:27:58;29.00;23.30
4354;DHT22;11018;51.258;6.806;2023-06-22T10:30:23;28.60;25.40
4354;DHT22;11018;51.258;6.806;2023-06-22T10:32:49;28.30;26.60
4354;DHT22;11018;51.258;6.806;2023-06-22T10:35:14;28.10;27.90
4354;DHT22;11018;51.258;6.806;2023-06-22T10:37:43;27.80;30.20
4354;DHT22;11018;51.258;6.806;2023-06-22T10:40:09;27.50;32.00
4354;DHT22;11018;51.258;6.806;2023-06-22T10:42:34;27.10;34.30
4354;DHT22;11018;51.258;6.806;2023-06-22T10:45:00;27.00;35.10
4354;DHT22;11018;51.258;6.806;2023-06-22T10:47:26;26.90;35.30
4354;DHT22;11018;51.258;6.806;2023-06-22T10:49:51;26.80;35.80
4354;DHT22;11018;51.258;6.806;2023-06-22T10:52:17;26.80;36.80
4354;DHT22;11018;51.258;6.806;2023-06-22T10:54:42;26.70;40.10
4354;DHT22;11018;51.258;6.806;2023-06-22T10:57:08;26.40;43.00
4354;DHT22;11018;51.258;6.806;2023-06-22T10:59:33;26.30;47.50
4354;DHT22;11018;51.258;6.806;2023-06-22T11:01:59;26.00;49.60
4354;DHT22;11018;51.258;6.806;2023-06-22T11:04:24;25.80;49.90
4354;DHT22;11018;51.258;6.806;2023-06-22T11:06:50;25.60;58.50
4354;DHT22;11018;51.258;6.806;2023-06-22T11:09:16;25.50;64.60
4354;DHT22;11018;51.258;6.806;2023-06-22T11:11:49;25.10;66.30
4354;DHT22;11018;51.258;6.806;2023-06-22T11:14:15;24.60;75.10
4354;DHT22;11018;51.258;6.806;2023-06-22T11:16:41;24.50;82.10
4354;DHT22;11018;51.258;6.806;2023-06-22T11:19:07;24.50;87.20
4354;DHT22;11018;51.258;6.806;2023-06-22T11:21:32;24.20;91.70
4354;DHT22;11018;51.258;6.806;2023-06-22T11:23:59;24.00;92.50
4354;DHT22;11018;51.258;6.806;2023-06-22T11:26:25;23.70;99.20
4354;DHT22;11018;51.258;6.806;2023-06-22T11:28:53;23.50;99.90
4354;DHT22;11018;51.258;6.806;2023-06-22T11:31:18;23.50;99.90
4354;DHT22;11018;51.258;6.806;2023-06-22T11:33:44;23.50;99.90
4354;DHT22;11018;51.258;6.806;2023-06-22T11:36:11;23.40;99.90
4354;DHT22;11018;51.258;6.806;2023-06-22T11:38:37;23.30;99.90
4354;DHT22;11018;51.258;6.806;2023-06-22T11:41:07;23.30;99.90
4354;DHT22;11018;51.258;6.806;2023-06-22T11:43:33;23.20;99.90
4354;DHT22;11018;51.258;6.806;2023-06-22T11:45:59;23.10;99.90
4354;DHT22;11018;51.258;6.806;2023-06-22T11:48:26;23.10;99.90
4354;DHT22;11018;51.258;6.806;2023-06-22T11:50:51;23.10;99.90
4354;DHT22;11018;51.258;6.806;2023-06-22T11:53:17;23.10;99.90
4354;DHT22;11018;51.258;6.806;2023-06-22T11:55:46;23.00;99.90
4354;DHT22;11018;51.258;6.806;2023-06-22T11:58:11;23.10;99.90
4354;DHT22;11018;51.258;6.806;2023-06-22T12:00:37;23.20;99.90
4354;DHT22;11018;51.258;6.806;2023-06-22T12:03:03;23.30;99.90
4354;DHT22;11018;51.258;6.806;2023-06-22T12:05:29;23.30;99.90
4354;DHT22;11018;51.258;6.806;2023-06-22T12:07:54;23.30;99.90
4354;DHT22;11018;51.258;6.806;2023-06-22T12:10:24;23.40;99.90
4354;DHT22;11018;51.258;6.806;2023-06-22T12:12:50;23.60;99.90
4354;DHT22;11018;51.258;6.806;2023-06-22T12:15:16;23.90;98.90
4354;DHT22;11018;51.258;6.806;2023-06-22T12:17:42;24.20;91.10
4354;DHT22;11018;51.258;6.806;2023-06-22T12:20:08;24.50;91.40
4354;DHT22;11018;51.258;6.806;2023-06-22T12:22:34;24.80;86.00
4354;DHT22;11018;51.258;6.806;2023-06-22T12:25:00;24.70;88.20
4354;DHT22;11018;51.258;6.806;2023-06-22T12:27:26;24.60;90.30
4354;DHT22;11018;51.258;6.806;2023-06-22T12:29:52;24.10;88.70
4354;DHT22;11018;51.258;6.806;2023-06-22T12:32:17;23.80;95.30
4354;DHT22;11018;51.258;6.806;2023-06-22T12:34:44;23.70;95.10
4354;DHT22;11018;51.258;6.806;2023-06-22T12:37:10;23.40;95.40
4354;DHT22;11018;51.258;6.806;2023-06-22T12:39:36;23.30;95.80
4354;DHT22;11018;51.258;6.806;2023-06-22T12:42:01;23.30;98.00
4354;DHT22;11018;51.258;6.806;2023-06-22T12:44:27;23.30;99.20
4354;DHT22;11018;51.258;6.806;2023-06-22T12:46:53;23.10;98.70
4354;DHT22;11018;51.258;6.806;2023-06-22T12:49:18;23.20;99.90
4354;DHT22;11018;51.258;6.806;2023-06-22T12:51:44;23.30;99.90
4354;DHT22;11018;51.258;6.806;2023-06-22T12:54:10;23.50;97.10
4354;DHT22;11018;51.258;6.806;2023-06-22T12:56:37;23.70;96.00
4354;DHT22;11018;51.258;6.806;2023-06-22T12:59:03;23.90;91.30
4354;DHT22;11018;51.258;6.806;2023-06-22T13:01:29;24.40;88.30
4354;DHT22;11018;51.258;6.806;2023-06-22T13:03:58;24.90;88.90
4354;DHT22;11018;51.258;6.806;2023-06-22T13:06:24;25.50;84.10
4354;DHT22;11018;51.258;6.806;2023-06-22T13:08:50;25.70;73.70
4354;DHT22;11018;51.258;6.806;2023-06-22T13:11:15;25.80;71.40
4354;DHT22;11018;51.258;6.806;2023-06-22T13:13:41;25.50;73.10
4354;DHT22;11018;51.258;6.806;2023-06-22T13:16:07;25.20;78.30
4354;DHT22;11018;51.258;6.806;2023-06-22T13:18:32;25.00;80.70
4354;DHT22;11018;51.258;6.806;2023-06-22T13:20:59;24.80;83.10
4354;DHT22;11018;51.258;6.806;2023-06-22T13:23:25;24.80;83.50
4354;DHT22;11018;51.258;6.806;2023-06-22T13:25:51;25.10;85.80
4354;DHT22;11018;51.258;6.806;2023-06-22T13:28:16;25.20;78.90
4354;DHT22;11018;51.258;6.806;2023-06-22T13:30:42;25.20;78.20
4354;DHT22;11018;51.258;6.806;2023-06-22T13:33:08;25.40;80.10
4354;DHT22;11018;51.258;6.806;2023-06-22T13:35:34;26.00;73.60
4354;DHT22;11018;51.258;6.806;2023-06-22T13:38:03;26.40;71.70
4354;DHT22;11018;51.258;6.806;2023-06-22T13:40:29;26.80;66.60
4354;DHT22;11018;51.258;6.806;2023-06-22T13:42:55;26.50;66.20
4354;DHT22;11018;51.258;6.806;2023-06-22T13:45:21;26.20;71.30
4354;DHT22;11018;51.258;6.806;2023-06-22T13:47:47;25.70;70.80
4354;DHT22;11018;51.258;6.806;2023-06-22T13:50:12;25.50;77.10
4354;DHT22;11018;51.258;6.806;2023-06-22T13:52:38;25.20;79.70
4354;DHT22;11018;51.258;6.806;2023-06-22T13:55:04;25.10;80.50
4354;DHT22;11018;51.258;6.806;2023-06-22T13:57:31;24.90;80.80
4354;DHT22;11018;51.258;6.806;2023-06-22T13:59:56;24.90;81.20
4354;DHT22;11018;51.258;6.806;2023-06-22T14:02:22;24.70;82.50
4354;DHT22;11018;51.258;6.806;2023-06-22T14:04:47;24.70;84.20
4354;DHT22;11018;51.258;6.806;2023-06-22T14:07:13;24.60;84.30
4354;DHT22;11018;51.258;6.806;2023-06-22T14:09:38;24.50;84.10
4354;DHT22;11018;51.258;6.806;2023-06-22T14:12:05;24.50;83.20
4354;DHT22;11018;51.258;6.806;2023-06-22T14:14:32;24.50;83.90
4354;DHT22;11018;51.258;6.806;2023-06-22T14:16:58;24.50;85.60
4354;DHT22;11018;51.258;6.806;2023-06-22T14:19:24;24.40;85.10
4354;DHT22;11018;51.258;6.806;2023-06-22T14:21:49;24.20;89.00
4354;DHT22;11018;51.258;6.806;2023-06-22T14:24:15;24.20;87.70
4354;DHT22;11018;51.258;6.806;2023-06-22T14:26:41;24.30;86.60
4354;DHT22;11018;51.258;6.806;2023-06-22T14:29:06;24.40;85.20
4354;DHT22;11018;51.258;6.806;2023-06-22T14:31:32;24.50;83.30
4354;DHT22;11018;51.258;6.806;2023-06-22T14:33:57;24.30;83.40
4354;DHT22;11018;51.258;6.806;2023-06-22T14:36:23;24.10;85.60
4354;DHT22;11018;51.258;6.806;2023-06-22T14:38:49;23.90;87.40
4354;DHT22;11018;51.258;6.806;2023-06-22T14:41:14;23.70;89.60
4354;DHT22;11018;51.258;6.806;2023-06-22T14:43:46;23.50;91.00
4354;DHT22;11018;51.258;6.806;2023-06-22T14:46:12;23.50;93.30
4354;DHT22;11018;51.258;6.806;2023-06-22T14:48:38;23.50;93.20
4354;DHT22;11018;51.258;6.806;2023-06-22T14:51:03;23.50;91.60
4354;DHT22;11018;51.258;6.806;2023-06-22T14:53:29;23.60;92.00
4354;DHT22;11018;51.258;6.806;2023-06-22T14:55:54;23.70;89.50
4354;DHT22;11018;51.258;6.806;2023-06-22T14:58:20;23.80;87.60
4354;DHT22;11018;51.258;6.806;2023-06-22T15:00:46;23.60;85.30
4354;DHT22;11018;51.258;6.806;2023-06-22T15:03:11;23.60;89.30
4354;DHT22;11018;51.258;6.806;2023-06-22T15:05:42;23.50;90.40
4354;DHT22;11018;51.258;6.806;2023-06-22T15:08:08;23.40;88.70
4354;DHT22;11018;51.258;6.806;2023-06-22T15:10:34;23.50;86.90
4354;DHT22;11018;51.258;6.806;2023-06-22T15:13:00;23.60;84.20
4354;DHT22;11018;51.258;6.806;2023-06-22T15:15:25;23.60;86.00
4354;DHT22;11018;51.258;6.806;2023-06-22T15:17:51;23.60;87.40
4354;DHT22;11018;51.258;6.806;2023-06-22T15:20:16;23.70;85.70
4354;DHT22;11018;51.258;6.806;2023-06-22T15:22:45;23.60;84.30
4354;DHT22;11018;51.258;6.806;2023-06-22T15:25:11;23.60;84.40
4354;DHT22;11018;51.258;6.806;2023-06-22T15:27:36;23.80;81.30
4354;DHT22;11018;51.258;6.806;2023-06-22T15:30:02;23.80;81.90
4354;DHT22;11018;51.258;6.806;2023-06-22T15:32:29;23.80;81.40
4354;DHT22;11018;51.258;6.806;2023-06-22T15:34:54;23.80;82.70
4354;DHT22;11018;51.258;6.806;2023-06-22T15:37:20;23.80;83.10
4354;DHT22;11018;51.258;6.806;2023-06-22T15:39:46;23.80;82.80
4354;DHT22;11018;51.258;6.806;2023-06-22T15:42:12;23.70;84.10